Time;durP1;ratioP1;P1;durP2;ratioP2;P2;SDS_P1;SDS_P2;PMS_P1;PMS_P2;Temp;Humidity;BMP_temperature;BMP_pressure;BME280_temperature;BME280_humidity;BME280_pressure;Samples;Min_cycle;Max_cycle;Signal;HPM_P1;HPM_P2
2023/02/26 00:01:16;;;;;;;50.58;36.20;;;;;;;;;;10019514;28;20089;-66
2023/02/26 00:06:09;;;;;;;;;;;;;;;;;;10026141;28;20413;-66
2023/02/26 00:11:06;;;;;;;55.75;37.28;;;;;;;;;;10028332;28;19927;-66
2023/02/26 00:16:00;;;;;;;62.13;38.88;;;;;;;;;;10010216;28;20058;-66
2023/02/26 00:20:54;;;;;;;65.18;38.47;;;;;;;;;;10026865;28;20050;-66
2023/02/26 00:25:49;;;;;;;61.13;39.50;;;;;;;;;;10027998;28;20137;-66
2023/02/26 00:30:42;;;;;;;66.50;37.90;;;;;;;;;;10018166;28;20094;-66
2023/02/26 00:35:37;;;;;;;56.00;38.63;;;;;;;;;;10024567;28;20053;-66
2023/02/26 00:40:44;;;;;;;56.03;36.63;;;;;;;;;;10018027;28;20132;-66
2023/02/26 00:45:38;;;;;;;60.25;37.65;;;;;;;;;;10025464;28;20079;-66
2023/02/26 00:50:32;;;;;;;64.93;38.08;;;;;;;;;;10027047;28;20132;-66
2023/02/26 00:55:26;;;;;;;56.22;37.80;;;;;;;;;;10027336;28;20514;-65
2023/02/26 01:00:21;;;;;;;54.53;36.63;;;;;;;;;;10020962;28;20056;-65
2023/02/26 01:05:16;;;;;;;69.45;38.15;;;;;;;;;;10021490;28;20410;-66
2023/02/26 01:10:12;;;;;;;54.10;36.90;;;;;;;;;;10025464;28;20056;-66
2023/02/26 01:15:05;;;;;;;53.25;35.90;;;;;;;;;;10014512;28;20060;-66
2023/02/26 01:20:04;;;;;;;58.17;36.72;;;;;;;;;;10024234;28;20045;-66
2023/02/26 01:25:26;;;;;;;55.95;37.08;;;;;;;;;;10020007;28;20487;-66
2023/02/26 01:30:21;;;;;;;57.65;36.42;;;;;;;;;;10019173;28;20053;-65
2023/02/26 01:35:51;;;;;;;56.42;35.28;;;;;;;;;;10022019;28;20056;-66
2023/02/26 01:41:02;;;;;;;51.92;34.17;;;;;;;;;;10022021;28;20061;-66
2023/02/26 01:45:58;;;;;;;55.35;33.25;;;;;;;;;;10024590;28;20153;-66
2023/02/26 01:50:52;;;;;;;52.70;32.90;;;;;;;;;;10025365;28;20057;-66
2023/02/26 01:55:57;;;;;;;52.00;34.22;;;;;;;;;;10024856;28;20066;-66
2023/02/26 02:00:51;;;;;;;53.97;33.33;;;;;;;;;;10006007;28;20480;-66
2023/02/26 02:05:51;;;;;;;46.28;32.80;;;;;;;;;;10024190;28;20140;-66
2023/02/26 02:10:47;;;;;;;55.10;31.88;;;;;;;;;;10008597;28;20074;-66
2023/02/26 02:15:52;;;;;;;55.65;32.85;;;;;;;;;;10022400;28;20124;-65
2023/02/26 02:21:19;;;;;;;52.25;32.08;;;;;;;;;;10012161;28;20050;-66
2023/02/26 02:26:21;;;;;;;48.17;32.92;;;;;;;;;;10013592;28;20460;-66
2023/02/26 02:31:25;;;;;;;48.10;31.30;;;;;;;;;;10014439;28;20046;-66
2023/02/26 02:36:28;;;;;;;44.85;33.13;;;;;;;;;;10025393;28;20050;-66
2023/02/26 02:41:31;;;;;;;51.67;32.35;;;;;;;;;;10018760;28;20039;-66
2023/02/26 02:46:29;;;;;;;50.60;33.45;;;;;;;;;;10007442;28;20054;-67
2023/02/26 02:51:32;;;;;;;51.63;34.70;;;;;;;;;;10005321;28;20058;-66
2023/02/26 02:56:30;;;;;;;55.63;33.88;;;;;;;;;;10031072;28;20582;-68
2023/02/26 03:01:25;;;;;;;51.80;33.72;;;;;;;;;;10019902;28;20046;-66
2023/02/26 03:06:18;;;;;;;53.97;33.88;;;;;;;;;;10003025;28;20045;-68
2023/02/26 03:11:14;;;;;;;49.85;36.22;;;;;;;;;;10029447;28;20491;-67
2023/02/26 03:16:37;;;;;;;54.40;38.40;;;;;;;;;;10031414;28;20081;-67
2023/02/26 03:21:33;;;;;;;69.05;44.05;;;;;;;;;;10019763;28;20056;-67
2023/02/26 03:26:36;;;;;;;68.05;42.63;;;;;;;;;;10013851;28;20112;-67
2023/02/26 03:31:56;;;;;;;69.88;46.08;;;;;;;;;;10019098;28;20558;-65
2023/02/26 03:37:12;;;;;;;58.38;40.25;;;;;;;;;;10012940;28;20104;-67
2023/02/26 03:42:25;;;;;;;46.33;35.80;;;;;;;;;;10022760;28;20481;-67
2023/02/26 03:47:22;;;;;;;42.95;32.05;;;;;;;;;;10001286;28;20506;-66
2023/02/26 03:52:21;;;;;;;14.23;8.95;;;;;;;;;;10006382;28;20054;-66
2023/02/26 03:58:04;;;;;;;5.28;2.03;;;;;;;;;;10017367;28;20133;-65
2023/02/26 04:03:39;;;;;;;4.60;1.95;;;;;;;;;;10016810;28;20041;-65
2023/02/26 04:08:50;;;;;;;6.43;2.50;;;;;;;;;;10026825;28;20082;-65
2023/02/26 04:13:44;;;;;;;4.88;1.88;;;;;;;;;;10027973;28;20053;-64
2023/02/26 04:18:37;;;;;;;5.38;1.95;;;;;;;;;;10027202;28;20053;-64
2023/02/26 04:23:31;;;;;;;5.85;1.65;;;;;;;;;;10027648;28;20144;-64
2023/02/26 04:28:25;;;;;;;2.45;1.70;;;;;;;;;;10027618;28;20053;-64
2023/02/26 04:33:18;;;;;;;3.13;1.77;;;;;;;;;;10026923;28;20407;-65
2023/02/26 04:38:17;;;;;;;5.80;2.97;;;;;;;;;;10028151;28;20060;-65
2023/02/26 04:43:11;;;;;;;2.47;1.70;;;;;;;;;;10028189;28;20104;-64
2023/02/26 04:48:13;;;;;;;2.38;1.48;;;;;;;;;;10026537;28;20053;-67
2023/02/26 04:53:06;;;;;;;2.88;2.55;;;;;;;;;;10026643;28;20421;-67
2023/02/26 04:58:03;;;;;;;3.75;1.83;;;;;;;;;;10026205;28;20068;-66
2023/02/26 05:02:56;;;;;;;2.25;1.30;;;;;;;;;;10026218;28;20053;-67
2023/02/26 05:07:52;;;;;;;2.88;1.20;;;;;;;;;;10025782;28;20057;-66
2023/02/26 05:12:46;;;;;;;2.65;1.58;;;;;;;;;;10025411;28;20045;-67
2023/02/26 05:17:39;;;;;;;1.50;1.25;;;;;;;;;;10025669;28;20056;-66
2023/02/26 05:22:33;;;;;;;3.10;1.63;;;;;;;;;;10025764;28;20061;-66
2023/02/26 05:27:26;;;;;;;3.50;1.55;;;;;;;;;;10025255;28;20065;-66
2023/02/26 05:32:19;;;;;;;4.18;1.30;;;;;;;;;;10025800;28;20097;-66
2023/02/26 05:37:12;;;;;;;3.00;1.30;;;;;;;;;;10016169;28;20034;-67
2023/02/26 05:42:06;;;;;;;2.25;1.63;;;;;;;;;;10022963;28;20406;-66
2023/02/26 05:47:00;;;;;;;3.33;1.70;;;;;;;;;;10018064;28;20053;-66
2023/02/26 05:51:54;;;;;;;6.82;1.73;;;;;;;;;;10025730;28;20085;-67
2023/02/26 05:56:47;;;;;;;1.63;1.48;;;;;;;;;;10026074;28;20100;-66
2023/02/26 06:01:41;;;;;;;8.77;1.95;;;;;;;;;;10025399;28;20128;-67
2023/02/26 06:06:35;;;;;;;3.78;1.67;;;;;;;;;;10025288;28;20442;-67
2023/02/26 06:11:29;;;;;;;4.32;1.85;;;;;;;;;;10017057;28;20518;-68
2023/02/26 06:16:25;;;;;;;3.92;1.40;;;;;;;;;;10020885;28;20419;-66
2023/02/26 06:21:18;;;;;;;3.78;2.55;;;;;;;;;;10026050;28;20042;-66
2023/02/26 06:26:12;;;;;;;5.97;1.70;;;;;;;;;;10022176;28;20045;-66
2023/02/26 06:31:04;;;;;;;5.60;2.20;;;;;;;;;;10019537;28;20069;-66
2023/02/26 06:35:59;;;;;;;3.15;1.67;;;;;;;;;;10027154;28;20049;-66
2023/02/26 06:40:52;;;;;;;7.07;4.05;;;;;;;;;;10029656;28;20100;-67
2023/02/26 06:45:45;;;;;;;5.28;1.83;;;;;;;;;;10032114;28;20487;-68
2023/02/26 06:50:38;;;;;;;4.65;1.63;;;;;;;;;;10032194;28;20049;-69
2023/02/26 06:55:32;;;;;;;8.35;2.03;;;;;;;;;;10032374;28;20053;-68
2023/02/26 07:00:26;;;;;;;3.20;2.15;;;;;;;;;;10032195;28;20053;-69
2023/02/26 07:05:22;;;;;;;7.10;2.47;;;;;;;;;;10026144;28;20049;-68
2023/02/26 07:10:15;;;;;;;4.15;1.77;;;;;;;;;;10029212;28;20048;-68
2023/02/26 07:15:10;;;;;;;5.55;1.85;;;;;;;;;;10020862;28;20460;-69
2023/02/26 07:20:05;;;;;;;8.10;1.98;;;;;;;;;;10017770;28;20041;-69
2023/02/26 07:24:59;;;;;;;4.93;3.50;;;;;;;;;;10011079;28;20125;-70
2023/02/26 07:29:52;;;;;;;5.72;2.20;;;;;;;;;;10022014;28;20070;-70
2023/02/26 07:34:45;;;;;;;3.58;2.25;;;;;;;;;;10013106;28;20124;-72
2023/02/26 07:39:39;;;;;;;6.95;2.90;;;;;;;;;;10020523;28;20050;-67
2023/02/26 07:44:33;;;;;;;7.43;2.70;;;;;;;;;;10017418;28;20116;-67
2023/02/26 07:49:26;;;;;;;6.68;1.88;;;;;;;;;;10014999;28;20535;-68
2023/02/26 07:54:20;;;;;;;4.82;2.33;;;;;;;;;;10015572;28;20047;-67
2023/02/26 07:59:13;;;;;;;2.70;2.35;;;;;;;;;;10014994;28;20053;-67
2023/02/26 08:04:07;;;;;;;2.67;1.60;;;;;;;;;;10012039;28;20045;-67
2023/02/26 08:09:01;;;;;;;4.88;2.17;;;;;;;;;;10013920;28;20061;-67
2023/02/26 08:13:55;;;;;;;9.90;3.60;;;;;;;;;;10013018;28;20400;-68
2023/02/26 08:18:47;;;;;;;2.95;1.85;;;;;;;;;;10009410;28;20419;-67
2023/02/26 08:23:41;;;;;;;3.47;2.10;;;;;;;;;;10008384;28;20045;-67
2023/02/26 08:28:34;;;;;;;7.32;2.97;;;;;;;;;;10008698;28;20403;-68
2023/02/26 08:33:27;;;;;;;5.95;2.33;;;;;;;;;;10001359;28;20053;-66
2023/02/26 08:38:21;;;;;;;5.00;2.00;;;;;;;;;;10004420;28;20133;-68
2023/02/26 08:43:15;;;;;;;1.88;1.70;;;;;;;;;;10014177;28;20060;-68
2023/02/26 08:48:09;;;;;;;4.13;2.25;;;;;;;;;;10017422;28;20071;-68
2023/02/26 08:53:03;;;;;;;2.45;2.13;;;;;;;;;;10020019;28;20062;-69
2023/02/26 08:57:57;;;;;;;4.60;1.85;;;;;;;;;;10013862;28;20052;-69
2023/02/26 09:02:49;;;;;;;3.45;2.10;;;;;;;;;;10006671;28;20050;-68
2023/02/26 09:07:43;;;;;;;2.65;2.28;;;;;;;;;;10002551;28;20100;-71
2023/02/26 09:12:37;;;;;;;8.13;1.90;;;;;;;;;;10012229;28;20137;-72
2023/02/26 09:17:30;;;;;;;6.10;1.83;;;;;;;;;;10015688;28;20578;-70
2023/02/26 09:22:23;;;;;;;5.30;2.13;;;;;;;;;;10002264;28;20081;-70
2023/02/26 09:27:16;;;;;;;7.80;2.72;;;;;;;;;;10013602;28;20050;-71
2023/02/26 09:32:09;;;;;;;6.43;2.65;;;;;;;;;;10014402;28;20057;-73
2023/02/26 09:37:04;;;;;;;12.05;2.50;;;;;;;;;;10009376;28;20060;-74
2023/02/26 09:42:10;;;;;;;8.60;2.40;;;;;;;;;;10012885;28;20084;-73
2023/02/26 09:47:08;;;;;;;5.45;2.85;;;;;;;;;;10016697;28;20042;-74
2023/02/26 09:52:17;;;;;;;4.20;2.63;;;;;;;;;;10016587;28;20054;-70
2023/02/26 09:57:19;;;;;;;3.87;2.30;;;;;;;;;;10010162;28;20061;-70
2023/02/26 10:02:21;;;;;;;2.22;2.03;;;;;;;;;;10020095;28;20547;-70
2023/02/26 10:07:28;;;;;;;2.70;1.85;;;;;;;;;;10019614;28;20041;-71
2023/02/26 10:12:27;;;;;;;4.00;1.85;;;;;;;;;;10021071;28;20081;-72
2023/02/26 10:17:52;;;;;;;2.50;2.30;;;;;;;;;;10019357;28;20487;-70
2023/02/26 10:23:17;;;;;;;4.75;3.13;;;;;;;;;;10009866;28;20050;-70
2023/02/26 10:28:57;;;;;;;2.00;1.90;;;;;;;;;;10014626;28;20077;-69
2023/02/26 10:34:17;;;;;;;5.03;3.05;;;;;;;;;;9985617;28;20042;-68
2023/02/26 10:39:48;;;;;;;1.95;1.63;;;;;;;;;;10006582;28;20081;-70
2023/02/26 10:44:47;;;;;;;3.28;2.35;;;;;;;;;;10012142;28;20122;-69
2023/02/26 10:49:49;;;;;;;2.25;1.73;;;;;;;;;;10015172;28;20057;-68
2023/02/26 10:55:04;;;;;;;2.33;2.13;;;;;;;;;;10019507;28;20466;-70
2023/02/26 11:00:04;;;;;;;4.25;2.80;;;;;;;;;;10007826;28;20053;-73
2023/02/26 11:04:56;;;;;;;4.43;3.67;;;;;;;;;;10012934;28;20489;-70
2023/02/26 11:10:00;;;;;;;9.45;5.07;;;;;;;;;;10029852;28;20050;-73
2023/02/26 11:14:53;;;;;;;2.25;2.15;;;;;;;;;;10031204;28;20092;-74
2023/02/26 11:20:04;;;;;;;2.53;2.28;;;;;;;;;;10031276;28;20490;-72
2023/02/26 11:24:56;;;;;;;4.67;2.27;;;;;;;;;;10030750;28;20132;-73
2023/02/26 11:29:56;;;;;;;2.97;2.33;;;;;;;;;;10028750;28;20505;-73
2023/02/26 11:34:51;;;;;;;6.18;2.20;;;;;;;;;;10029407;28;20057;-72
2023/02/26 11:39:45;;;;;;;8.00;7.20;;;;;;;;;;10015418;28;20050;-74
2023/02/26 11:44:40;;;;;;;5.18;4.28;;;;;;;;;;10027409;28;20053;-75
2023/02/26 11:49:34;;;;;;;11.23;4.50;;;;;;;;;;10027645;28;20058;-73
2023/02/26 11:54:38;;;;;;;5.15;2.70;;;;;;;;;;10023318;28;20053;-73
2023/02/26 11:59:32;;;;;;;11.50;4.20;;;;;;;;;;10023762;28;20053;-73
2023/02/26 12:04:26;;;;;;;5.15;3.63;;;;;;;;;;10028952;28;20054;-75
2023/02/26 12:09:20;;;;;;;15.38;7.60;;;;;;;;;;10028714;28;20126;-77
2023/02/26 12:14:45;;;;;;;15.95;10.43;;;;;;;;;;10027678;28;20103;-75
2023/02/26 12:19:53;;;;;;;27.35;18.10;;;;;;;;;;10025443;28;20050;-75
2023/02/26 12:24:58;;;;;;;28.15;17.35;;;;;;;;;;10020149;28;20521;-75
2023/02/26 12:30:14;;;;;;;14.15;10.50;;;;;;;;;;10018033;28;20046;-76
2023/02/26 12:35:31;;;;;;;13.48;9.50;;;;;;;;;;10019122;28;20435;-76
2023/02/26 12:40:30;;;;;;;14.88;6.50;;;;;;;;;;10026922;28;20053;-74
2023/02/26 12:45:29;;;;;;;3.80;3.25;;;;;;;;;;10026928;28;20125;-74
2023/02/26 12:50:25;;;;;;;;;;;;;;;;;;10025250;28;20052;-72
2023/02/26 12:55:38;;;;;;;6.13;4.43;;;;;;;;;;10025269;28;19929;-74
2023/02/26 13:00:52;;;;;;;5.07;3.50;;;;;;;;;;10017295;28;20073;-74
2023/02/26 13:06:07;;;;;;;6.00;3.13;;;;;;;;;;10020845;28;20041;-74
2023/02/26 13:11:15;;;;;;;7.30;3.22;;;;;;;;;;10022300;28;20050;-74
2023/02/26 13:16:13;;;;;;;8.30;4.40;;;;;;;;;;10025315;28;20061;-74
2023/02/26 13:21:12;;;;;;;15.55;3.65;;;;;;;;;;10025502;28;20044;-74
2023/02/26 13:26:08;;;;;;;8.43;3.55;;;;;;;;;;10022983;28;20137;-78
2023/02/26 13:31:03;;;;;;;6.13;4.07;;;;;;;;;;10024081;28;20092;-73
2023/02/26 13:35:58;;;;;;;6.32;2.33;;;;;;;;;;10010377;28;20101;-73
2023/02/26 13:41:13;;;;;;;4.35;3.40;;;;;;;;;;10014938;28;20084;-79
2023/02/26 13:46:39;;;;;;;7.75;5.03;;;;;;;;;;10002456;28;20054;-75
2023/02/26 13:51:42;;;;;;;8.45;4.97;;;;;;;;;;10003715;28;20127;-75
2023/02/26 13:56:35;;;;;;;8.65;4.22;;;;;;;;;;10009046;28;20042;-75
2023/02/26 14:01:35;;;;;;;6.47;3.70;;;;;;;;;;9998072;28;20133;-67
2023/02/26 14:06:58;;;;;;;5.35;2.65;;;;;;;;;;10003744;28;20046;-67
2023/02/26 14:11:54;;;;;;;8.68;3.35;;;;;;;;;;9992549;28;20042;-69
2023/02/26 14:17:06;;;;;;;8.30;3.05;;;;;;;;;;10016477;28;20076;-69
2023/02/26 14:22:24;;;;;;;6.50;3.63;;;;;;;;;;10014421;28;20441;-70
2023/02/26 14:27:17;;;;;;;4.78;2.78;;;;;;;;;;10001010;28;20042;-70
2023/02/26 14:32:09;;;;;;;8.60;3.63;;;;;;;;;;9990416;28;20084;-70
2023/02/26 14:37:07;;;;;;;5.93;2.92;;;;;;;;;;10014286;28;20054;-67
2023/02/26 14:42:19;;;;;;;39.72;25.27;;;;;;;;;;10004110;28;20053;-67
2023/02/26 14:47:12;;;;;;;13.65;6.38;;;;;;;;;;10015228;28;20430;-70
2023/02/26 14:52:23;;;;;;;17.50;11.18;;;;;;;;;;10013663;28;20061;-69
2023/02/26 14:57:31;;;;;;;7.47;4.70;;;;;;;;;;10016363;28;20046;-69
2023/02/26 15:02:36;;;;;;;5.93;4.53;;;;;;;;;;10016080;28;20133;-68
2023/02/26 15:07:47;;;;;;;6.65;3.00;;;;;;;;;;10012285;28;20062;-68
2023/02/26 15:13:10;;;;;;;9.68;2.70;;;;;;;;;;10011654;28;20057;-68
2023/02/26 15:18:45;;;;;;;15.50;7.70;;;;;;;;;;10013884;28;20058;-67
2023/02/26 15:24:02;;;;;;;13.77;5.05;;;;;;;;;;10020236;28;20076;-68
2023/02/26 15:28:57;;;;;;;10.93;5.07;;;;;;;;;;10016770;28;20132;-70
2023/02/26 15:33:55;;;;;;;15.80;10.10;;;;;;;;;;10011794;28;20044;-70
2023/02/26 15:38:54;;;;;;;7.22;4.35;;;;;;;;;;10011590;28;20127;-71
2023/02/26 15:43:51;;;;;;;13.93;6.03;;;;;;;;;;10017999;28;20410;-68
2023/02/26 15:48:44;;;;;;;7.85;4.45;;;;;;;;;;10018752;28;20046;-70
2023/02/26 15:54:02;;;;;;;5.30;4.72;;;;;;;;;;10010336;28;20056;-68
2023/02/26 15:59:16;;;;;;;9.77;4.72;;;;;;;;;;10017375;28;20058;-72
2023/02/26 16:04:16;;;;;;;7.32;5.32;;;;;;;;;;10041935;28;20124;-70
2023/02/26 16:09:19;;;;;;;6.07;4.22;;;;;;;;;;10017979;28;20077;-71
2023/02/26 16:14:17;;;;;;;9.13;4.65;;;;;;;;;;10025879;28;20418;-76
2023/02/26 16:19:44;;;;;;;6.95;4.30;;;;;;;;;;10020554;28;20479;-71
2023/02/26 16:24:36;;;;;;;4.60;3.70;;;;;;;;;;10020183;28;20058;-71
2023/02/26 16:29:31;;;;;;;5.32;4.32;;;;;;;;;;10021870;28;20062;-69
2023/02/26 16:34:30;;;;;;;7.50;5.80;;;;;;;;;;10020842;28;20570;-70
2023/02/26 16:39:26;;;;;;;11.60;6.43;;;;;;;;;;10016310;28;20062;-69
2023/02/26 16:44:30;;;;;;;9.38;4.63;;;;;;;;;;10011175;28;20320;-70
2023/02/26 16:49:28;;;;;;;10.57;4.43;;;;;;;;;;10017667;28;20069;-69
2023/02/26 16:54:24;;;;;;;6.38;3.92;;;;;;;;;;10010261;28;20050;-69
2023/02/26 16:59:23;;;;;;;6.38;4.18;;;;;;;;;;10017597;28;20882;-69
2023/02/26 17:04:16;;;;;;;;;;;;;;;;;;10015563;28;20049;-69
2023/02/26 17:09:27;;;;;;;8.98;4.05;;;;;;;;;;10014498;28;19930;-71
2023/02/26 17:14:24;;;;;;;3.60;3.30;;;;;;;;;;10018850;28;20081;-68
2023/02/26 17:19:17;;;;;;;6.85;4.00;;;;;;;;;;10016516;28;20081;-67
2023/02/26 17:24:39;;;;;;;9.05;4.00;;;;;;;;;;10014474;28;20791;-68
2023/02/26 17:29:36;;;;;;;7.03;3.80;;;;;;;;;;10016198;28;20058;-67
2023/02/26 17:34:29;;;;;;;7.40;5.03;;;;;;;;;;10008842;28;20069;-69
2023/02/26 17:39:22;;;;;;;5.03;3.92;;;;;;;;;;10015364;28;20065;-69
2023/02/26 17:44:15;;;;;;;8.20;5.05;;;;;;;;;;10006260;28;20141;-72
2023/02/26 17:49:10;;;;;;;8.43;5.40;;;;;;;;;;10009725;28;20068;-70
2023/02/26 17:54:04;;;;;;;7.32;3.83;;;;;;;;;;10007365;28;20058;-69
2023/02/26 17:58:58;;;;;;;7.03;4.60;;;;;;;;;;10016537;28;20091;-69
2023/02/26 18:03:53;;;;;;;9.68;5.30;;;;;;;;;;10016708;28;20034;-70
2023/02/26 18:08:47;;;;;;;7.45;3.95;;;;;;;;;;10021676;28;20050;-70
2023/02/26 18:13:40;;;;;;;7.82;5.45;;;;;;;;;;10021126;28;20077;-70
2023/02/26 18:18:34;;;;;;;8.48;4.68;;;;;;;;;;10025526;28;20506;-70
2023/02/26 18:23:27;;;;;;;13.25;6.35;;;;;;;;;;10032322;28;20046;-66
2023/02/26 18:28:21;;;;;;;8.45;4.20;;;;;;;;;;10031336;28;20054;-71
2023/02/26 18:33:17;;;;;;;9.57;7.45;;;;;;;;;;10032121;28;20530;-70
2023/02/26 18:38:15;;;;;;;6.88;4.93;;;;;;;;;;10031660;28;20041;-74
2023/02/26 18:43:11;;;;;;;9.57;6.05;;;;;;;;;;10031354;28;20048;-74
2023/02/26 18:48:05;;;;;;;9.68;8.65;;;;;;;;;;10027363;28;20435;-72
2023/02/26 18:52:58;;;;;;;5.10;4.38;;;;;;;;;;10030528;28;20050;-72
2023/02/26 18:57:52;;;;;;;6.43;5.05;;;;;;;;;;10021897;28;20113;-72
2023/02/26 19:02:47;;;;;;;5.05;4.55;;;;;;;;;;10026357;28;20089;-72
2023/02/26 19:07:41;;;;;;;11.35;6.22;;;;;;;;;;10026944;28;20400;-71
2023/02/26 19:12:35;;;;;;;7.38;5.32;;;;;;;;;;10029642;28;20073;-71
2023/02/26 19:17:27;;;;;;;11.77;6.40;;;;;;;;;;10029440;28;20133;-71
2023/02/26 19:22:21;;;;;;;10.68;9.70;;;;;;;;;;10030204;28;20054;-70
2023/02/26 19:27:15;;;;;;;8.80;7.00;;;;;;;;;;10027887;28;20439;-71
2023/02/26 19:32:08;;;;;;;11.68;6.03;;;;;;;;;;10024302;28;20057;-72
2023/02/26 19:37:02;;;;;;;9.10;5.80;;;;;;;;;;10029244;28;20042;-70
2023/02/26 19:41:55;;;;;;;9.55;6.32;;;;;;;;;;10030055;28;20053;-72
2023/02/26 19:46:48;;;;;;;6.05;4.57;;;;;;;;;;10029612;28;20510;-70
2023/02/26 19:51:42;;;;;;;6.65;5.45;;;;;;;;;;10028373;28;20096;-70
2023/02/26 19:56:35;;;;;;;6.70;5.05;;;;;;;;;;10028588;28;20054;-70
2023/02/26 20:01:29;;;;;;;7.88;6.50;;;;;;;;;;10027405;28;20418;-66
2023/02/26 20:06:24;;;;;;;5.65;5.05;;;;;;;;;;10027067;28;20046;-68
2023/02/26 20:11:17;;;;;;;9.05;6.00;;;;;;;;;;10019087;28;20458;-69
2023/02/26 20:16:10;;;;;;;9.90;7.35;;;;;;;;;;10015124;28;20141;-73
2023/02/26 20:21:07;;;;;;;5.18;4.05;;;;;;;;;;10004271;28;20400;-74
2023/02/26 20:26:03;;;;;;;5.90;4.20;;;;;;;;;;10003534;28;20069;-74
2023/02/26 20:30:56;;;;;;;6.65;5.07;;;;;;;;;;10005021;28;20046;-73
2023/02/26 20:35:50;;;;;;;8.93;6.25;;;;;;;;;;10007949;28;20050;-72
2023/02/26 20:40:42;;;;;;;11.18;8.75;;;;;;;;;;10005398;28;20108;-71
2023/02/26 20:45:36;;;;;;;9.10;5.40;;;;;;;;;;9998068;28;20049;-71
2023/02/26 20:50:29;;;;;;;12.30;6.00;;;;;;;;;;9997144;28;20081;-71
2023/02/26 20:55:22;;;;;;;11.93;6.70;;;;;;;;;;10009516;28;20088;-70
2023/02/26 21:00:18;;;;;;;8.63;4.72;;;;;;;;;;10007429;28;20074;-73
2023/02/26 21:05:12;;;;;;;6.43;5.50;;;;;;;;;;10015380;28;20522;-72
2023/02/26 21:10:10;;;;;;;6.70;5.60;;;;;;;;;;10017907;28;20050;-71
2023/02/26 21:15:05;;;;;;;6.35;3.90;;;;;;;;;;10020101;28;20108;-71
2023/02/26 21:19:59;;;;;;;6.88;3.83;;;;;;;;;;10017703;28;20042;-72
2023/02/26 21:24:52;;;;;;;4.85;4.10;;;;;;;;;;10011277;28;20052;-69
2023/02/26 21:29:46;;;;;;;8.65;4.25;;;;;;;;;;10011469;28;20054;-72
2023/02/26 21:34:40;;;;;;;6.43;3.47;;;;;;;;;;10006866;28;20104;-71
2023/02/26 21:39:36;;;;;;;10.55;5.03;;;;;;;;;;10008577;28;20073;-71
2023/02/26 21:44:33;;;;;;;21.02;11.18;;;;;;;;;;10012737;28;20049;-70
2023/02/26 21:49:29;;;;;;;6.70;4.32;;;;;;;;;;10007084;28;20519;-71
2023/02/26 21:54:23;;;;;;;11.98;5.80;;;;;;;;;;10004829;28;20060;-71
2023/02/26 21:59:16;;;;;;;10.32;2.90;;;;;;;;;;10020389;28;20073;-71
2023/02/26 22:04:09;;;;;;;5.10;4.22;;;;;;;;;;10021955;28;20054;-71
2023/02/26 22:09:03;;;;;;;5.05;4.32;;;;;;;;;;10009617;28;20065;-71
2023/02/26 22:13:57;;;;;;;8.77;4.97;;;;;;;;;;10019361;28;20460;-71
2023/02/26 22:18:51;;;;;;;7.90;3.25;;;;;;;;;;10016641;28;20118;-71
2023/02/26 22:23:44;;;;;;;2.72;2.45;;;;;;;;;;10019419;28;20057;-71
2023/02/26 22:28:37;;;;;;;7.28;3.67;;;;;;;;;;10008966;28;20058;-71
2023/02/26 22:33:30;;;;;;;3.08;2.60;;;;;;;;;;10022910;28;20052;-71
2023/02/26 22:38:24;;;;;;;2.42;2.22;;;;;;;;;;10024156;28;20045;-71
2023/02/26 22:43:17;;;;;;;2.67;2.47;;;;;;;;;;10015330;28;20054;-71
2023/02/26 22:48:12;;;;;;;3.78;3.08;;;;;;;;;;10022138;28;20406;-70
2023/02/26 22:53:06;;;;;;;4.78;2.97;;;;;;;;;;10016793;28;20430;-70
2023/02/26 22:57:59;;;;;;;2.85;2.50;;;;;;;;;;10016463;28;20060;-70
2023/02/26 23:02:52;;;;;;;7.75;4.05;;;;;;;;;;10014604;28;20042;-71
2023/02/26 23:07:45;;;;;;;6.10;2.30;;;;;;;;;;10027661;28;20045;-70
2023/02/26 23:12:38;;;;;;;14.80;2.80;;;;;;;;;;10030902;28;20049;-69
2023/02/26 23:17:32;;;;;;;2.65;2.45;;;;;;;;;;10030114;28;20499;-70
2023/02/26 23:22:25;;;;;;;5.20;3.33;;;;;;;;;;10031046;28;20046;-70
2023/02/26 23:27:18;;;;;;;6.38;3.65;;;;;;;;;;10030109;28;20477;-69
2023/02/26 23:32:13;;;;;;;7.05;3.85;;;;;;;;;;10030787;28;20744;-70
2023/02/26 23:37:06;;;;;;;4.35;3.40;;;;;;;;;;10029719;28;20124;-69
2023/02/26 23:42:00;;;;;;;12.20;4.05;;;;;;;;;;10010853;28;20054;-70
2023/02/26 23:46:53;;;;;;;4.20;2.78;;;;;;;;;;10004964;28;20129;-70
2023/02/26 23:51:47;;;;;;;3.55;2.20;;;;;;;;;;10028677;28;20060;-70
2023/02/26 23:56:40;;;;;;;5.82;3.25;;;;;;;;;;10029093;28;20069;-69
